sensor_id;sensor_type;location;lat;lon;timestamp;P1;durP1;ratioP1;P2;durP2;ratioP2
71298;SDS011;59083;47.974;21.722;2022-07-06T00:00:22;12.05;;;7.37;;
71298;SDS011;59083;47.974;21.722;2022-07-06T00:03:23;12.80;;;7.43;;
71298;SDS011;59083;47.974;21.722;2022-07-06T00:06:25;14.23;;;8.23;;
71298;SDS011;59083;47.974;21.722;2022-07-06T00:09:26;12.68;;;7.37;;
71298;SDS011;59083;47.974;21.722;2022-07-06T00:12:27;11.30;;;6.93;;
71298;SDS011;59083;47.974;21.722;2022-07-06T00:15:28;10.63;;;6.80;;
71298;SDS011;59083;47.974;21.722;2022-07-06T00:18:30;11.10;;;6.95;;
71298;SDS011;59083;47.974;21.722;2022-07-06T00:21:31;11.07;;;6.82;;
71298;SDS011;59083;47.974;21.722;2022-07-06T00:24:32;10.07;;;6.53;;
71298;SDS011;59083;47.974;21.722;2022-07-06T00:27:34;10.97;;;6.67;;
71298;SDS011;59083;47.974;21.722;2022-07-06T00:30:35;11.43;;;7.12;;
71298;SDS011;59083;47.974;21.722;2022-07-06T00:33:36;12.37;;;7.10;;
71298;SDS011;59083;47.974;21.722;2022-07-06T00:36:37;11.95;;;7.30;;
71298;SDS011;59083;47.974;21.722;2022-07-06T00:39:39;12.68;;;7.53;;
71298;SDS011;59083;47.974;21.722;2022-07-06T00:42:41;11.47;;;6.80;;
71298;SDS011;59083;47.974;21.722;2022-07-06T00:45:44;9.68;;;6.45;;
71298;SDS011;59083;47.974;21.722;2022-07-06T00:48:45;10.05;;;6.40;;
71298;SDS011;59083;47.974;21.722;2022-07-06T00:51:46;11.75;;;6.53;;
71298;SDS011;59083;47.974;21.722;2022-07-06T00:54:47;10.77;;;6.65;;
71298;SDS011;59083;47.974;21.722;2022-07-06T00:57:49;10.23;;;6.30;;
71298;SDS011;59083;47.974;21.722;2022-07-06T01:00:50;11.50;;;6.30;;
71298;SDS011;59083;47.974;21.722;2022-07-06T01:03:52;12.15;;;6.18;;
71298;SDS011;59083;47.974;21.722;2022-07-06T01:06:53;10.45;;;6.00;;
71298;SDS011;59083;47.974;21.722;2022-07-06T01:09:55;10.50;;;6.28;;
71298;SDS011;59083;47.974;21.722;2022-07-06T01:12:56;9.70;;;5.87;;
71298;SDS011;59083;47.974;21.722;2022-07-06T01:15:59;9.43;;;5.68;;
71298;SDS011;59083;47.974;21.722;2022-07-06T01:19:00;10.60;;;5.25;;
71298;SDS011;59083;47.974;21.722;2022-07-06T01:22:02;10.95;;;5.93;;
71298;SDS011;59083;47.974;21.722;2022-07-06T01:25:04;10.05;;;6.47;;
71298;SDS011;59083;47.974;21.722;2022-07-06T01:28:06;9.90;;;6.17;;
71298;SDS011;59083;47.974;21.722;2022-07-06T01:31:21;10.00;;;6.35;;
71298;SDS011;59083;47.974;21.722;2022-07-06T01:34:25;9.40;;;5.62;;
71298;SDS011;59083;47.974;21.722;2022-07-06T01:37:26;11.85;;;5.72;;
71298;SDS011;59083;47.974;21.722;2022-07-06T01:40:28;11.10;;;6.47;;
71298;SDS011;59083;47.974;21.722;2022-07-06T01:43:29;11.93;;;6.30;;
71298;SDS011;59083;47.974;21.722;2022-07-06T01:46:30;9.13;;;5.60;;
71298;SDS011;59083;47.974;21.722;2022-07-06T01:49:32;8.90;;;5.90;;
71298;SDS011;59083;47.974;21.722;2022-07-06T01:52:34;10.80;;;6.87;;
71298;SDS011;59083;47.974;21.722;2022-07-06T01:55:36;14.13;;;6.03;;
71298;SDS011;59083;47.974;21.722;2022-07-06T01:58:37;9.67;;;5.53;;
71298;SDS011;59083;47.974;21.722;2022-07-06T02:01:39;10.45;;;5.70;;
71298;SDS011;59083;47.974;21.722;2022-07-06T02:04:40;7.90;;;5.10;;
71298;SDS011;59083;47.974;21.722;2022-07-06T02:07:42;9.90;;;5.30;;
71298;SDS011;59083;47.974;21.722;2022-07-06T02:10:43;9.05;;;5.30;;
71298;SDS011;59083;47.974;21.722;2022-07-06T02:13:45;8.13;;;4.80;;
71298;SDS011;59083;47.974;21.722;2022-07-06T02:16:46;9.43;;;4.93;;
71298;SDS011;59083;47.974;21.722;2022-07-06T02:19:51;8.25;;;4.68;;
71298;SDS011;59083;47.974;21.722;2022-07-06T02:22:52;8.95;;;5.07;;
71298;SDS011;59083;47.974;21.722;2022-07-06T02:25:55;7.55;;;4.50;;
71298;SDS011;59083;47.974;21.722;2022-07-06T02:28:56;8.07;;;4.53;;
71298;SDS011;59083;47.974;21.722;2022-07-06T02:31:58;7.55;;;4.32;;
71298;SDS011;59083;47.974;21.722;2022-07-06T02:34:59;7.87;;;4.50;;
71298;SDS011;59083;47.974;21.722;2022-07-06T02:38:01;7.87;;;4.60;;
71298;SDS011;59083;47.974;21.722;2022-07-06T02:41:02;7.93;;;4.55;;
71298;SDS011;59083;47.974;21.722;2022-07-06T02:44:04;7.93;;;4.20;;
71298;SDS011;59083;47.974;21.722;2022-07-06T02:47:05;8.50;;;4.47;;
71298;SDS011;59083;47.974;21.722;2022-07-06T02:50:07;10.07;;;4.30;;
71298;SDS011;59083;47.974;21.722;2022-07-06T02:53:08;7.55;;;4.50;;
71298;SDS011;59083;47.974;21.722;2022-07-06T02:56:10;9.50;;;5.55;;
71298;SDS011;59083;47.974;21.722;2022-07-06T02:59:11;9.37;;;4.60;;
71298;SDS011;59083;47.974;21.722;2022-07-06T03:02:13;7.70;;;4.37;;
71298;SDS011;59083;47.974;21.722;2022-07-06T03:05:14;9.57;;;4.35;;
71298;SDS011;59083;47.974;21.722;2022-07-06T03:08:16;7.55;;;4.53;;
71298;SDS011;59083;47.974;21.722;2022-07-06T03:11:18;8.18;;;4.47;;
71298;SDS011;59083;47.974;21.722;2022-07-06T03:14:19;6.80;;;4.40;;
71298;SDS011;59083;47.974;21.722;2022-07-06T03:17:21;8.32;;;4.45;;
71298;SDS011;59083;47.974;21.722;2022-07-06T03:20:23;8.43;;;4.68;;
71298;SDS011;59083;47.974;21.722;2022-07-06T03:23:26;7.60;;;3.97;;
71298;SDS011;59083;47.974;21.722;2022-07-06T03:26:27;8.15;;;4.72;;
71298;SDS011;59083;47.974;21.722;2022-07-06T03:29:29;8.17;;;4.10;;
71298;SDS011;59083;47.974;21.722;2022-07-06T03:32:31;7.60;;;4.40;;
71298;SDS011;59083;47.974;21.722;2022-07-06T03:35:32;8.35;;;4.40;;
71298;SDS011;59083;47.974;21.722;2022-07-06T03:38:35;8.10;;;4.45;;
71298;SDS011;59083;47.974;21.722;2022-07-06T03:41:36;7.70;;;4.40;;
71298;SDS011;59083;47.974;21.722;2022-07-06T03:44:38;9.00;;;4.67;;
71298;SDS011;59083;47.974;21.722;2022-07-06T03:47:39;8.90;;;4.82;;
71298;SDS011;59083;47.974;21.722;2022-07-06T03:50:41;9.15;;;4.93;;
71298;SDS011;59083;47.974;21.722;2022-07-06T03:53:44;9.90;;;4.62;;
71298;SDS011;59083;47.974;21.722;2022-07-06T03:56:46;6.85;;;4.22;;
71298;SDS011;59083;47.974;21.722;2022-07-06T03:59:48;8.83;;;5.20;;
71298;SDS011;59083;47.974;21.722;2022-07-06T04:02:49;8.80;;;5.15;;
71298;SDS011;59083;47.974;21.722;2022-07-06T04:05:52;11.57;;;5.37;;
71298;SDS011;59083;47.974;21.722;2022-07-06T04:08:53;9.93;;;6.70;;
71298;SDS011;59083;47.974;21.722;2022-07-06T04:11:55;12.93;;;6.80;;
71298;SDS011;59083;47.974;21.722;2022-07-06T04:14:56;10.57;;;5.47;;
71298;SDS011;59083;47.974;21.722;2022-07-06T04:17:58;8.55;;;5.07;;
71298;SDS011;59083;47.974;21.722;2022-07-06T04:21:00;10.48;;;5.70;;
71298;SDS011;59083;47.974;21.722;2022-07-06T04:24:04;11.65;;;5.50;;
71298;SDS011;59083;47.974;21.722;2022-07-06T04:27:07;8.40;;;5.07;;
71298;SDS011;59083;47.974;21.722;2022-07-06T04:30:09;8.50;;;5.00;;
71298;SDS011;59083;47.974;21.722;2022-07-06T04:33:11;10.95;;;5.80;;
71298;SDS011;59083;47.974;21.722;2022-07-06T04:36:12;10.10;;;5.12;;
71298;SDS011;59083;47.974;21.722;2022-07-06T04:39:14;10.15;;;5.05;;
71298;SDS011;59083;47.974;21.722;2022-07-06T04:42:16;9.25;;;5.15;;
71298;SDS011;59083;47.974;21.722;2022-07-06T04:45:17;8.43;;;5.30;;
71298;SDS011;59083;47.974;21.722;2022-07-06T04:48:19;8.52;;;5.10;;
71298;SDS011;59083;47.974;21.722;2022-07-06T04:51:20;12.50;;;5.32;;
71298;SDS011;59083;47.974;21.722;2022-07-06T04:54:22;8.90;;;5.18;;
71298;SDS011;59083;47.974;21.722;2022-07-06T04:57:23;8.43;;;4.80;;
71298;SDS011;59083;47.974;21.722;2022-07-06T05:00:27;8.40;;;5.33;;
71298;SDS011;59083;47.974;21.722;2022-07-06T05:03:28;8.68;;;5.20;;
71298;SDS011;59083;47.974;21.722;2022-07-06T05:06:30;8.80;;;5.10;;
71298;SDS011;59083;47.974;21.722;2022-07-06T05:09:31;9.30;;;5.18;;
71298;SDS011;59083;47.974;21.722;2022-07-06T05:12:33;8.90;;;5.10;;
71298;SDS011;59083;47.974;21.722;2022-07-06T05:15:34;8.93;;;5.00;;
71298;SDS011;59083;47.974;21.722;2022-07-06T05:18:36;9.73;;;4.93;;
71298;SDS011;59083;47.974;21.722;2022-07-06T05:21:38;7.93;;;4.90;;
71298;SDS011;59083;47.974;21.722;2022-07-06T05:24:40;11.93;;;5.15;;
71298;SDS011;59083;47.974;21.722;2022-07-06T05:27:42;8.15;;;4.72;;
71298;SDS011;59083;47.974;21.722;2022-07-06T05:30:43;10.20;;;4.13;;
71298;SDS011;59083;47.974;21.722;2022-07-06T05:33:46;8.55;;;3.40;;
71298;SDS011;59083;47.974;21.722;2022-07-06T05:36:47;9.23;;;3.00;;
71298;SDS011;59083;47.974;21.722;2022-07-06T05:39:48;8.18;;;3.10;;
71298;SDS011;59083;47.974;21.722;2022-07-06T05:42:51;13.62;;;3.12;;
71298;SDS011;59083;47.974;21.722;2022-07-06T05:45:53;5.63;;;3.27;;
71298;SDS011;59083;47.974;21.722;2022-07-06T05:48:55;6.18;;;3.20;;
71298;SDS011;59083;47.974;21.722;2022-07-06T05:52:15;6.37;;;3.30;;
71298;SDS011;59083;47.974;21.722;2022-07-06T05:55:17;8.35;;;2.42;;
71298;SDS011;59083;47.974;21.722;2022-07-06T05:58:18;4.25;;;2.12;;
71298;SDS011;59083;47.974;21.722;2022-07-06T06:01:20;3.67;;;1.80;;
71298;SDS011;59083;47.974;21.722;2022-07-06T06:04:22;4.53;;;1.65;;
71298;SDS011;59083;47.974;21.722;2022-07-06T06:07:23;3.53;;;1.55;;
71298;SDS011;59083;47.974;21.722;2022-07-06T06:10:25;2.92;;;1.40;;
71298;SDS011;59083;47.974;21.722;2022-07-06T06:13:26;3.45;;;1.10;;
71298;SDS011;59083;47.974;21.722;2022-07-06T06:16:28;1.57;;;0.80;;
71298;SDS011;59083;47.974;21.722;2022-07-06T06:19:30;2.17;;;1.20;;
71298;SDS011;59083;47.974;21.722;2022-07-06T06:22:31;4.68;;;1.30;;
71298;SDS011;59083;47.974;21.722;2022-07-06T06:25:44;3.65;;;1.48;;
71298;SDS011;59083;47.974;21.722;2022-07-06T06:28:45;1.60;;;0.98;;
71298;SDS011;59083;47.974;21.722;2022-07-06T06:31:46;2.50;;;1.10;;
71298;SDS011;59083;47.974;21.722;2022-07-06T06:34:48;2.83;;;1.08;;
71298;SDS011;59083;47.974;21.722;2022-07-06T06:37:49;5.20;;;1.60;;
71298;SDS011;59083;47.974;21.722;2022-07-06T06:40:50;4.12;;;1.60;;
71298;SDS011;59083;47.974;21.722;2022-07-06T06:43:51;1.70;;;1.00;;
71298;SDS011;59083;47.974;21.722;2022-07-06T06:46:53;2.43;;;0.80;;
71298;SDS011;59083;47.974;21.722;2022-07-06T06:49:54;4.65;;;2.00;;
71298;SDS011;59083;47.974;21.722;2022-07-06T06:52:55;5.28;;;2.00;;
71298;SDS011;59083;47.974;21.722;2022-07-06T06:55:56;2.72;;;1.00;;
71298;SDS011;59083;47.974;21.722;2022-07-06T06:58:58;1.58;;;0.88;;
71298;SDS011;59083;47.974;21.722;2022-07-06T07:01:59;3.93;;;0.90;;
71298;SDS011;59083;47.974;21.722;2022-07-06T07:05:00;3.80;;;1.00;;
71298;SDS011;59083;47.974;21.722;2022-07-06T07:08:02;1.20;;;0.90;;
71298;SDS011;59083;47.974;21.722;2022-07-06T07:11:03;1.33;;;0.95;;
71298;SDS011;59083;47.974;21.722;2022-07-06T07:14:05;3.47;;;1.55;;
71298;SDS011;59083;47.974;21.722;2022-07-06T07:17:06;1.30;;;0.90;;
71298;SDS011;59083;47.974;21.722;2022-07-06T07:20:07;1.70;;;1.00;;
71298;SDS011;59083;47.974;21.722;2022-07-06T07:23:10;4.45;;;1.12;;
71298;SDS011;59083;47.974;21.722;2022-07-06T07:26:11;2.08;;;1.10;;
71298;SDS011;59083;47.974;21.722;2022-07-06T07:29:12;1.80;;;1.20;;
71298;SDS011;59083;47.974;21.722;2022-07-06T07:32:13;5.50;;;1.20;;
71298;SDS011;59083;47.974;21.722;2022-07-06T07:35:15;2.95;;;1.20;;
71298;SDS011;59083;47.974;21.722;2022-07-06T07:38:16;6.35;;;1.30;;
71298;SDS011;59083;47.974;21.722;2022-07-06T07:41:17;5.50;;;2.55;;
71298;SDS011;59083;47.974;21.722;2022-07-06T07:44:19;2.33;;;1.35;;
71298;SDS011;59083;47.974;21.722;2022-07-06T07:47:20;3.93;;;1.37;;
71298;SDS011;59083;47.974;21.722;2022-07-06T07:50:21;4.12;;;1.45;;
71298;SDS011;59083;47.974;21.722;2022-07-06T07:53:23;4.82;;;1.50;;
71298;SDS011;59083;47.974;21.722;2022-07-06T07:56:24;2.97;;;1.30;;
71298;SDS011;59083;47.974;21.722;2022-07-06T07:59:25;2.53;;;1.33;;
71298;SDS011;59083;47.974;21.722;2022-07-06T08:02:26;4.37;;;1.40;;
71298;SDS011;59083;47.974;21.722;2022-07-06T08:05:28;2.62;;;1.30;;
71298;SDS011;59083;47.974;21.722;2022-07-06T08:08:29;6.25;;;1.50;;
71298;SDS011;59083;47.974;21.722;2022-07-06T08:11:31;3.22;;;1.40;;
71298;SDS011;59083;47.974;21.722;2022-07-06T08:14:32;2.85;;;1.30;;
71298;SDS011;59083;47.974;21.722;2022-07-06T08:17:33;4.00;;;1.30;;
71298;SDS011;59083;47.974;21.722;2022-07-06T08:20:34;2.10;;;1.30;;
71298;SDS011;59083;47.974;21.722;2022-07-06T08:23:36;5.45;;;1.70;;
71298;SDS011;59083;47.974;21.722;2022-07-06T08:26:37;6.70;;;1.73;;
71298;SDS011;59083;47.974;21.722;2022-07-06T08:29:39;3.12;;;1.42;;
71298;SDS011;59083;47.974;21.722;2022-07-06T08:32:40;3.93;;;1.47;;
71298;SDS011;59083;47.974;21.722;2022-07-06T08:35:42;4.00;;;1.35;;
71298;SDS011;59083;47.974;21.722;2022-07-06T08:38:44;3.53;;;1.60;;
71298;SDS011;59083;47.974;21.722;2022-07-06T08:41:45;3.15;;;1.55;;
71298;SDS011;59083;47.974;21.722;2022-07-06T08:44:48;3.72;;;1.98;;
71298;SDS011;59083;47.974;21.722;2022-07-06T08:47:54;4.50;;;1.80;;
71298;SDS011;59083;47.974;21.722;2022-07-06T08:50:56;3.50;;;2.00;;
71298;SDS011;59083;47.974;21.722;2022-07-06T08:53:59;3.95;;;1.80;;
71298;SDS011;59083;47.974;21.722;2022-07-06T08:57:01;4.12;;;1.75;;
71298;SDS011;59083;47.974;21.722;2022-07-06T09:00:04;2.92;;;1.70;;
71298;SDS011;59083;47.974;21.722;2022-07-06T09:03:05;4.10;;;1.80;;
71298;SDS011;59083;47.974;21.722;2022-07-06T09:06:08;7.20;;;1.80;;
71298;SDS011;59083;47.974;21.722;2022-07-06T09:09:10;7.18;;;1.60;;
71298;SDS011;59083;47.974;21.722;2022-07-06T09:12:14;3.17;;;1.60;;
71298;SDS011;59083;47.974;21.722;2022-07-06T09:15:16;3.08;;;1.90;;
71298;SDS011;59083;47.974;21.722;2022-07-06T09:18:17;4.27;;;1.70;;
71298;SDS011;59083;47.974;21.722;2022-07-06T09:21:25;4.60;;;1.80;;
71298;SDS011;59083;47.974;21.722;2022-07-06T09:24:28;6.32;;;1.77;;
71298;SDS011;59083;47.974;21.722;2022-07-06T09:27:29;3.35;;;1.70;;
71298;SDS011;59083;47.974;21.722;2022-07-06T09:30:31;3.10;;;1.67;;
71298;SDS011;59083;47.974;21.722;2022-07-06T09:33:32;2.97;;;1.60;;
71298;SDS011;59083;47.974;21.722;2022-07-06T09:36:44;3.22;;;1.80;;
71298;SDS011;59083;47.974;21.722;2022-07-06T09:39:49;3.45;;;1.80;;
71298;SDS011;59083;47.974;21.722;2022-07-06T09:42:50;3.22;;;1.85;;
71298;SDS011;59083;47.974;21.722;2022-07-06T09:45:52;2.60;;;1.67;;
71298;SDS011;59083;47.974;21.722;2022-07-06T09:48:55;3.13;;;1.80;;
71298;SDS011;59083;47.974;21.722;2022-07-06T09:51:57;3.85;;;1.83;;
71298;SDS011;59083;47.974;21.722;2022-07-06T09:55:00;5.85;;;2.03;;
71298;SDS011;59083;47.974;21.722;2022-07-06T09:58:01;3.65;;;2.10;;
71298;SDS011;59083;47.974;21.722;2022-07-06T10:01:03;3.47;;;2.05;;
71298;SDS011;59083;47.974;21.722;2022-07-06T10:04:06;11.40;;;2.37;;
71298;SDS011;59083;47.974;21.722;2022-07-06T10:07:07;5.12;;;2.10;;
71298;SDS011;59083;47.974;21.722;2022-07-06T10:10:09;4.85;;;2.30;;
71298;SDS011;59083;47.974;21.722;2022-07-06T10:13:12;5.70;;;2.42;;
71298;SDS011;59083;47.974;21.722;2022-07-06T10:16:23;8.65;;;2.08;;
71298;SDS011;59083;47.974;21.722;2022-07-06T10:19:26;12.30;;;2.00;;
71298;SDS011;59083;47.974;21.722;2022-07-06T10:22:28;3.53;;;2.12;;
71298;SDS011;59083;47.974;21.722;2022-07-06T10:25:31;6.65;;;2.30;;
71298;SDS011;59083;47.974;21.722;2022-07-06T10:28:34;3.35;;;1.80;;
71298;SDS011;59083;47.974;21.722;2022-07-06T10:31:36;3.72;;;1.92;;
71298;SDS011;59083;47.974;21.722;2022-07-06T10:34:40;3.67;;;1.80;;
71298;SDS011;59083;47.974;21.722;2022-07-06T10:37:42;3.87;;;1.80;;
71298;SDS011;59083;47.974;21.722;2022-07-06T10:40:51;5.45;;;1.80;;
71298;SDS011;59083;47.974;21.722;2022-07-06T10:44:16;3.08;;;1.70;;
71298;SDS011;59083;47.974;21.722;2022-07-06T10:47:18;4.10;;;1.60;;
71298;SDS011;59083;47.974;21.722;2022-07-06T10:50:34;5.37;;;1.90;;
71298;SDS011;59083;47.974;21.722;2022-07-06T10:53:37;8.07;;;2.08;;
71298;SDS011;59083;47.974;21.722;2022-07-06T10:56:40;5.50;;;1.80;;
71298;SDS011;59083;47.974;21.722;2022-07-06T11:00:02;3.85;;;1.70;;
71298;SDS011;59083;47.974;21.722;2022-07-06T11:06:38;7.33;;;1.60;;
71298;SDS011;59083;47.974;21.722;2022-07-06T11:09:41;4.68;;;1.70;;
71298;SDS011;59083;47.974;21.722;2022-07-06T11:12:48;2.62;;;1.70;;
71298;SDS011;59083;47.974;21.722;2022-07-06T11:16:01;2.90;;;1.70;;
71298;SDS011;59083;47.974;21.722;2022-07-06T11:19:10;2.50;;;1.70;;
71298;SDS011;59083;47.974;21.722;2022-07-06T11:22:14;3.23;;;1.80;;
71298;SDS011;59083;47.974;21.722;2022-07-06T11:25:16;4.43;;;1.80;;
71298;SDS011;59083;47.974;21.722;2022-07-06T11:28:19;5.80;;;1.85;;
71298;SDS011;59083;47.974;21.722;2022-07-06T11:31:21;3.50;;;1.95;;
71298;SDS011;59083;47.974;21.722;2022-07-06T11:34:23;8.35;;;2.03;;
71298;SDS011;59083;47.974;21.722;2022-07-06T11:37:26;5.50;;;2.03;;
71298;SDS011;59083;47.974;21.722;2022-07-06T11:40:27;8.30;;;1.95;;
71298;SDS011;59083;47.974;21.722;2022-07-06T11:43:30;7.25;;;2.22;;
71298;SDS011;59083;47.974;21.722;2022-07-06T11:46:35;4.65;;;1.98;;
71298;SDS011;59083;47.974;21.722;2022-07-06T11:49:37;6.65;;;2.40;;
71298;SDS011;59083;47.974;21.722;2022-07-06T11:52:40;4.47;;;2.00;;
71298;SDS011;59083;47.974;21.722;2022-07-06T11:55:42;3.67;;;2.03;;
71298;SDS011;59083;47.974;21.722;2022-07-06T11:58:43;4.55;;;2.00;;
71298;SDS011;59083;47.974;21.722;2022-07-06T12:01:47;3.95;;;1.90;;
71298;SDS011;59083;47.974;21.722;2022-07-06T12:04:49;6.20;;;2.08;;
71298;SDS011;59083;47.974;21.722;2022-07-06T12:08:02;3.47;;;2.00;;
71298;SDS011;59083;47.974;21.722;2022-07-06T12:11:05;4.60;;;2.20;;
71298;SDS011;59083;47.974;21.722;2022-07-06T12:14:13;3.97;;;2.12;;
71298;SDS011;59083;47.974;21.722;2022-07-06T12:17:17;4.03;;;2.25;;
71298;SDS011;59083;47.974;21.722;2022-07-06T12:20:18;4.45;;;2.08;;
71298;SDS011;59083;47.974;21.722;2022-07-06T12:23:20;4.43;;;2.00;;
71298;SDS011;59083;47.974;21.722;2022-07-06T12:26:22;6.87;;;2.55;;
71298;SDS011;59083;47.974;21.722;2022-07-06T12:29:26;5.90;;;2.20;;
71298;SDS011;59083;47.974;21.722;2022-07-06T12:32:27;7.25;;;2.90;;
71298;SDS011;59083;47.974;21.722;2022-07-06T12:35:29;5.90;;;2.25;;
71298;SDS011;59083;47.974;21.722;2022-07-06T12:38:30;5.20;;;2.23;;
71298;SDS011;59083;47.974;21.722;2022-07-06T12:41:33;4.35;;;2.10;;
71298;SDS011;59083;47.974;21.722;2022-07-06T12:44:45;7.65;;;2.20;;
71298;SDS011;59083;47.974;21.722;2022-07-06T12:47:58;5.18;;;2.17;;
71298;SDS011;59083;47.974;21.722;2022-07-06T12:51:02;5.75;;;2.25;;
71298;SDS011;59083;47.974;21.722;2022-07-06T12:54:14;5.80;;;2.20;;
71298;SDS011;59083;47.974;21.722;2022-07-06T13:00:22;4.75;;;2.28;;
71298;SDS011;59083;47.974;21.722;2022-07-06T13:03:24;4.50;;;2.45;;
71298;SDS011;59083;47.974;21.722;2022-07-06T13:06:29;4.65;;;2.05;;
71298;SDS011;59083;47.974;21.722;2022-07-06T13:09:31;6.00;;;2.50;;
71298;SDS011;59083;47.974;21.722;2022-07-06T13:12:33;5.50;;;2.20;;
71298;SDS011;59083;47.974;21.722;2022-07-06T13:15:35;3.95;;;2.25;;
71298;SDS011;59083;47.974;21.722;2022-07-06T13:18:36;4.82;;;2.30;;
71298;SDS011;59083;47.974;21.722;2022-07-06T13:21:37;4.37;;;2.30;;
71298;SDS011;59083;47.974;21.722;2022-07-06T13:24:39;3.77;;;2.10;;
71298;SDS011;59083;47.974;21.722;2022-07-06T13:27:41;8.15;;;2.28;;
71298;SDS011;59083;47.974;21.722;2022-07-06T13:30:43;4.30;;;2.20;;
71298;SDS011;59083;47.974;21.722;2022-07-06T13:33:44;3.70;;;2.10;;
71298;SDS011;59083;47.974;21.722;2022-07-06T13:36:45;4.10;;;2.17;;
71298;SDS011;59083;47.974;21.722;2022-07-06T13:39:46;5.13;;;2.20;;
71298;SDS011;59083;47.974;21.722;2022-07-06T13:42:48;6.12;;;2.40;;
71298;SDS011;59083;47.974;21.722;2022-07-06T13:45:49;4.95;;;2.10;;
71298;SDS011;59083;47.974;21.722;2022-07-06T13:48:50;4.57;;;2.20;;
71298;SDS011;59083;47.974;21.722;2022-07-06T13:51:52;5.32;;;2.00;;
71298;SDS011;59083;47.974;21.722;2022-07-06T13:54:55;5.57;;;2.50;;
71298;SDS011;59083;47.974;21.722;2022-07-06T13:57:56;3.58;;;2.20;;
71298;SDS011;59083;47.974;21.722;2022-07-06T14:00:57;6.43;;;2.40;;
71298;SDS011;59083;47.974;21.722;2022-07-06T14:03:59;4.95;;;2.20;;
71298;SDS011;59083;47.974;21.722;2022-07-06T14:07:00;5.28;;;2.53;;
71298;SDS011;59083;47.974;21.722;2022-07-06T14:10:02;4.13;;;2.30;;
71298;SDS011;59083;47.974;21.722;2022-07-06T14:13:04;6.68;;;2.10;;
71298;SDS011;59083;47.974;21.722;2022-07-06T14:16:05;6.65;;;2.33;;
71298;SDS011;59083;47.974;21.722;2022-07-06T14:19:07;5.22;;;2.20;;
71298;SDS011;59083;47.974;21.722;2022-07-06T14:22:08;4.68;;;2.30;;
71298;SDS011;59083;47.974;21.722;2022-07-06T14:25:09;4.97;;;2.30;;
71298;SDS011;59083;47.974;21.722;2022-07-06T14:28:11;5.22;;;2.37;;
71298;SDS011;59083;47.974;21.722;2022-07-06T14:31:17;5.32;;;2.20;;
71298;SDS011;59083;47.974;21.722;2022-07-06T14:34:18;7.20;;;2.20;;
71298;SDS011;59083;47.974;21.722;2022-07-06T14:37:19;5.05;;;2.28;;
71298;SDS011;59083;47.974;21.722;2022-07-06T14:40:21;3.97;;;2.30;;
71298;SDS011;59083;47.974;21.722;2022-07-06T14:43:22;17.42;;;2.60;;
71298;SDS011;59083;47.974;21.722;2022-07-06T14:46:23;3.83;;;2.20;;
71298;SDS011;59083;47.974;21.722;2022-07-06T14:49:25;6.62;;;2.30;;
71298;SDS011;59083;47.974;21.722;2022-07-06T14:52:26;5.03;;;2.35;;
71298;SDS011;59083;47.974;21.722;2022-07-06T14:55:27;4.63;;;2.10;;
71298;SDS011;59083;47.974;21.722;2022-07-06T14:58:28;4.68;;;2.30;;
71298;SDS011;59083;47.974;21.722;2022-07-06T15:01:30;7.05;;;3.10;;
71298;SDS011;59083;47.974;21.722;2022-07-06T15:04:31;3.78;;;2.10;;
71298;SDS011;59083;47.974;21.722;2022-07-06T15:07:33;4.20;;;2.40;;
71298;SDS011;59083;47.974;21.722;2022-07-06T15:10:35;5.90;;;2.20;;
71298;SDS011;59083;47.974;21.722;2022-07-06T15:13:36;4.18;;;2.42;;
71298;SDS011;59083;47.974;21.722;2022-07-06T15:16:38;5.50;;;2.33;;
71298;SDS011;59083;47.974;21.722;2022-07-06T15:19:39;4.00;;;2.28;;
71298;SDS011;59083;47.974;21.722;2022-07-06T15:22:41;3.92;;;2.35;;
71298;SDS011;59083;47.974;21.722;2022-07-06T15:25:42;6.13;;;2.47;;
71298;SDS011;59083;47.974;21.722;2022-07-06T15:28:44;8.18;;;2.42;;
71298;SDS011;59083;47.974;21.722;2022-07-06T15:31:45;5.55;;;2.37;;
71298;SDS011;59083;47.974;21.722;2022-07-06T15:34:47;4.28;;;2.20;;
71298;SDS011;59083;47.974;21.722;2022-07-06T15:37:48;5.50;;;2.45;;
71298;SDS011;59083;47.974;21.722;2022-07-06T15:40:49;6.07;;;2.50;;
71298;SDS011;59083;47.974;21.722;2022-07-06T15:44:00;5.90;;;2.20;;
71298;SDS011;59083;47.974;21.722;2022-07-06T15:47:05;4.60;;;2.20;;
71298;SDS011;59083;47.974;21.722;2022-07-06T15:50:10;4.97;;;2.10;;
71298;SDS011;59083;47.974;21.722;2022-07-06T15:53:11;5.28;;;2.40;;
71298;SDS011;59083;47.974;21.722;2022-07-06T15:56:12;4.83;;;2.40;;
71298;SDS011;59083;47.974;21.722;2022-07-06T15:59:14;7.35;;;2.50;;
71298;SDS011;59083;47.974;21.722;2022-07-06T16:02:15;6.00;;;2.30;;
71298;SDS011;59083;47.974;21.722;2022-07-06T16:05:17;7.57;;;2.42;;
71298;SDS011;59083;47.974;21.722;2022-07-06T16:08:21;7.68;;;2.45;;
71298;SDS011;59083;47.974;21.722;2022-07-06T16:11:23;4.13;;;2.20;;
71298;SDS011;59083;47.974;21.722;2022-07-06T16:14:24;6.70;;;2.40;;
71298;SDS011;59083;47.974;21.722;2022-07-06T16:17:25;5.70;;;2.40;;
71298;SDS011;59083;47.974;21.722;2022-07-06T16:20:26;5.15;;;2.50;;
71298;SDS011;59083;47.974;21.722;2022-07-06T16:23:28;4.22;;;2.50;;
71298;SDS011;59083;47.974;21.722;2022-07-06T16:26:29;7.77;;;2.30;;
71298;SDS011;59083;47.974;21.722;2022-07-06T16:29:31;5.37;;;2.40;;
71298;SDS011;59083;47.974;21.722;2022-07-06T16:32:32;5.00;;;2.37;;
71298;SDS011;59083;47.974;21.722;2022-07-06T16:35:34;4.10;;;2.37;;
71298;SDS011;59083;47.974;21.722;2022-07-06T16:38:35;9.85;;;2.45;;
71298;SDS011;59083;47.974;21.722;2022-07-06T16:41:38;5.67;;;2.10;;
71298;SDS011;59083;47.974;21.722;2022-07-06T16:44:39;6.35;;;2.40;;
71298;SDS011;59083;47.974;21.722;2022-07-06T16:47:40;4.53;;;2.28;;
71298;SDS011;59083;47.974;21.722;2022-07-06T16:50:42;5.22;;;2.47;;
71298;SDS011;59083;47.974;21.722;2022-07-06T16:53:43;8.88;;;2.50;;
71298;SDS011;59083;47.974;21.722;2022-07-06T16:56:44;5.07;;;2.60;;
71298;SDS011;59083;47.974;21.722;2022-07-06T16:59:46;5.53;;;2.50;;
71298;SDS011;59083;47.974;21.722;2022-07-06T17:02:47;6.75;;;3.05;;
71298;SDS011;59083;47.974;21.722;2022-07-06T17:05:49;4.85;;;2.37;;
71298;SDS011;59083;47.974;21.722;2022-07-06T17:08:51;4.07;;;2.50;;
71298;SDS011;59083;47.974;21.722;2022-07-06T17:11:53;5.33;;;2.40;;
71298;SDS011;59083;47.974;21.722;2022-07-06T17:14:54;4.03;;;2.10;;
71298;SDS011;59083;47.974;21.722;2022-07-06T17:17:57;4.32;;;2.20;;
71298;SDS011;59083;47.974;21.722;2022-07-06T17:20:59;5.25;;;2.30;;
71298;SDS011;59083;47.974;21.722;2022-07-06T17:24:01;4.45;;;2.25;;
71298;SDS011;59083;47.974;21.722;2022-07-06T17:27:02;5.67;;;2.13;;
71298;SDS011;59083;47.974;21.722;2022-07-06T17:30:04;7.68;;;2.37;;
71298;SDS011;59083;47.974;21.722;2022-07-06T17:33:06;5.78;;;2.25;;
71298;SDS011;59083;47.974;21.722;2022-07-06T17:37:04;5.28;;;2.28;;
71298;SDS011;59083;47.974;21.722;2022-07-06T17:40:06;6.25;;;2.45;;
71298;SDS011;59083;47.974;21.722;2022-07-06T17:43:08;7.93;;;2.30;;
71298;SDS011;59083;47.974;21.722;2022-07-06T17:46:10;5.15;;;2.72;;
71298;SDS011;59083;47.974;21.722;2022-07-06T17:49:11;6.72;;;2.90;;
71298;SDS011;59083;47.974;21.722;2022-07-06T17:52:13;5.40;;;2.60;;
71298;SDS011;59083;47.974;21.722;2022-07-06T17:55:17;5.65;;;2.80;;
71298;SDS011;59083;47.974;21.722;2022-07-06T17:58:19;4.80;;;2.30;;
71298;SDS011;59083;47.974;21.722;2022-07-06T18:01:20;4.22;;;2.40;;
71298;SDS011;59083;47.974;21.722;2022-07-06T18:04:22;4.87;;;2.30;;
71298;SDS011;59083;47.974;21.722;2022-07-06T18:07:23;5.87;;;2.30;;